Time;durP1;ratioP1;P1;durP2;ratioP2;P2;SDS_P1;SDS_P2;PMS_P1;PMS_P2;Temp;Humidity;BMP_temperature;BMP_pressure;BME280_temperature;BME280_humidity;BME280_pressure;Samples;Min_cycle;Max_cycle;Signal;HPM_P1;HPM_P2
2021/08/27 00:01:39;;;;;;;4.07;1.93;;;16.70;73.70;;;;;;5080670;28;20214;-86
2021/08/27 00:04:05;;;;;;;6.73;2.83;;;16.60;73.70;;;;;;5063294;28;20177;-85
2021/08/27 00:06:31;;;;;;;5.63;1.85;;;16.60;73.90;;;;;;5045765;28;21048;-87
2021/08/27 00:08:58;;;;;;;5.03;1.80;;;16.60;74.10;;;;;;5046409;28;20214;-87
2021/08/27 00:11:24;;;;;;;26.58;2.65;;;16.60;73.90;;;;;;5063047;28;20407;-85
2021/08/27 00:13:50;;;;;;;9.32;2.22;;;16.60;74.00;;;;;;5062138;28;20220;-87
2021/08/27 00:16:16;;;;;;;5.60;1.63;;;16.50;74.00;;;;;;5057730;28;20170;-86
2021/08/27 00:18:42;;;;;;;5.50;2.10;;;16.50;74.20;;;;;;5039023;28;20176;-87
2021/08/27 00:21:08;;;;;;;3.65;1.63;;;16.50;74.20;;;;;;5039285;28;20204;-86
2021/08/27 00:23:34;;;;;;;7.17;2.57;;;16.50;74.10;;;;;;5042243;28;20251;-87
2021/08/27 00:26:00;;;;;;;3.93;1.90;;;16.40;74.10;;;;;;5067211;28;20400;-88
2021/08/27 00:28:26;;;;;;;6.53;2.00;;;16.40;74.40;;;;;;5094954;28;20428;-87
2021/08/27 00:30:57;;;;;;;5.80;1.80;;;16.40;74.50;;;;;;5062275;28;20428;-87
2021/08/27 00:33:23;;;;;;;8.52;2.00;;;16.40;74.50;;;;;;5048445;28;20554;-87
2021/08/27 00:35:49;;;;;;;5.95;1.77;;;16.40;74.50;;;;;;5041951;28;20212;-86
2021/08/27 00:38:15;;;;;;;2.87;1.80;;;16.30;74.70;;;;;;5045294;28;20181;-86
2021/08/27 00:40:41;;;;;;;4.20;2.13;;;16.30;74.80;;;;;;5019336;28;20417;-87
2021/08/27 00:43:08;;;;;;;5.55;1.90;;;16.40;74.90;;;;;;5018740;28;20502;-87
2021/08/27 00:45:33;;;;;;;2.15;1.30;;;16.40;75.00;;;;;;5018787;28;20205;-87
2021/08/27 00:48:00;;;;;;;5.50;1.70;;;16.30;75.00;;;;;;5018468;28;20249;-87
2021/08/27 00:50:26;;;;;;;8.75;1.85;;;16.30;75.20;;;;;;5018558;28;20178;-88
2021/08/27 00:52:51;;;;;;;10.67;3.00;;;16.30;75.20;;;;;;5022515;28;20225;-87
2021/08/27 00:55:17;;;;;;;5.17;1.93;;;16.30;75.20;;;;;;5035828;28;20547;-87
2021/08/27 00:57:43;;;;;;;5.50;2.03;;;16.30;75.10;;;;;;5022329;28;20189;-88
2021/08/27 01:00:10;;;;;;;3.57;1.47;;;16.40;74.80;;;;;;5026287;28;20416;-88
2021/08/27 01:02:36;;;;;;;5.30;1.45;;;16.50;74.70;;;;;;5040908;28;20512;-88
2021/08/27 01:05:05;;;;;;;4.67;1.43;;;16.50;74.20;;;;;;5041519;28;20250;-87
2021/08/27 01:07:37;;;;;;;4.25;2.05;;;16.40;74.00;;;;;;5032597;28;20417;-88
2021/08/27 01:10:30;;;;;;;7.45;2.28;;;16.40;74.00;;;;;;5018741;28;20268;-88
2021/08/27 01:13:08;;;;;;;7.53;1.85;;;16.40;74.00;;;;;;5032051;28;20205;-87
2021/08/27 01:15:57;;;;;;;10.48;2.20;;;16.40;73.90;;;;;;5018480;28;20232;-87
2021/08/27 01:18:49;;;;;;;2.92;1.60;;;16.30;73.90;;;;;;5018424;28;20159;-89
2021/08/27 01:21:36;;;;;;;6.18;1.73;;;16.40;74.10;;;;;;5018245;28;20174;-88
2021/08/27 01:24:06;;;;;;;7.75;2.15;;;16.40;73.80;;;;;;5019813;28;20281;-88
2021/08/27 01:26:53;;;;;;;11.23;2.17;;;16.30;73.70;;;;;;5020850;28;20182;-88
2021/08/27 01:29:36;;;;;;;3.28;1.40;;;16.30;73.70;;;;;;5039627;28;20197;-88
2021/08/27 01:32:10;;;;;;;4.63;1.55;;;16.30;73.70;;;;;;5035780;28;20189;-87
2021/08/27 01:34:43;;;;;;;7.45;1.73;;;16.30;73.90;;;;;;5027402;28;20209;-87
2021/08/27 01:37:16;;;;;;;4.60;1.63;;;16.30;74.50;;;;;;5027201;28;20190;-87
2021/08/27 01:39:56;;;;;;;5.93;1.60;;;16.30;73.70;;;;;;5023124;28;20184;-87
2021/08/27 01:42:27;;;;;;;4.85;2.20;;;16.40;73.50;;;;;;5021729;28;20208;-87
2021/08/27 01:44:56;;;;;;;8.50;1.90;;;16.40;73.40;;;;;;5026023;28;20197;-87
2021/08/27 01:47:26;;;;;;;5.63;1.60;;;16.30;73.40;;;;;;5047236;28;20180;-86
2021/08/27 01:49:52;;;;;;;6.68;1.40;;;16.40;73.10;;;;;;5037011;28;20178;-87
2021/08/27 01:52:18;;;;;;;6.65;1.63;;;16.20;73.40;;;;;;5027522;28;20216;-87
2021/08/27 01:54:47;;;;;;;6.03;1.60;;;16.20;73.60;;;;;;5017862;28;20549;-87
2021/08/27 01:57:13;;;;;;;3.55;1.65;;;16.10;73.70;;;;;;5017697;28;20178;-87
2021/08/27 01:59:41;;;;;;;8.75;1.92;;;16.20;73.70;;;;;;5017285;28;20241;-87
2021/08/27 02:02:08;;;;;;;1.50;1.30;;;16.30;73.50;;;;;;5016909;28;20232;-87
2021/08/27 02:04:38;;;;;;;3.05;1.40;;;16.30;73.30;;;;;;5017140;28;20239;-87
2021/08/27 02:07:05;;;;;;;5.38;2.03;;;16.30;73.30;;;;;;5016770;28;20182;-87
2021/08/27 02:09:33;;;;;;;6.25;1.80;;;16.30;73.00;;;;;;5016795;28;20201;-87
2021/08/27 02:12:00;;;;;;;3.60;1.60;;;16.30;73.00;;;;;;5016540;28;20177;-87
2021/08/27 02:14:26;;;;;;;3.25;2.35;;;16.30;73.00;;;;;;5016954;28;20568;-86
2021/08/27 02:16:52;;;;;;;6.03;2.08;;;16.20;73.10;;;;;;5016759;28;20653;-87
2021/08/27 02:19:18;;;;;;;7.22;1.55;;;16.20;73.10;;;;;;5016907;28;20665;-87
2021/08/27 02:21:54;;;;;;;3.75;1.40;;;16.30;73.10;;;;;;5016470;28;20174;-88
2021/08/27 02:24:26;;;;;;;10.32;1.30;;;16.30;72.90;;;;;;5017479;28;20161;-87
2021/08/27 02:26:55;;;;;;;6.40;1.77;;;16.30;73.00;;;;;;5016937;28;20170;-87
2021/08/27 02:29:24;;;;;;;4.57;1.50;;;16.30;72.90;;;;;;5016808;28;20240;-87
2021/08/27 02:31:55;;;;;;;5.63;1.85;;;16.30;72.60;;;;;;5016585;28;20641;-87
2021/08/27 02:34:23;;;;;;;9.57;1.63;;;16.30;72.60;;;;;;5016546;28;20194;-87
2021/08/27 02:36:52;;;;;;;6.07;1.63;;;16.30;72.70;;;;;;5018451;28;20205;-87
2021/08/27 02:39:20;;;;;;;3.65;1.67;;;16.20;72.90;;;;;;5036044;28;20177;-87
2021/08/27 02:41:46;;;;;;;3.05;1.70;;;16.30;72.70;;;;;;5053729;28;20173;-87
2021/08/27 02:44:11;;;;;;;4.40;1.80;;;16.30;72.60;;;;;;5036290;28;20592;-89
2021/08/27 02:46:37;;;;;;;5.10;1.50;;;16.30;72.60;;;;;;5036414;28;20193;-89
2021/08/27 02:49:03;;;;;;;5.43;1.43;;;16.20;72.30;;;;;;5036025;28;20184;-88
2021/08/27 02:51:46;;;;;;;7.20;1.70;;;16.20;72.50;;;;;;5054026;28;20259;-89
2021/08/27 02:54:17;;;;;;;3.78;1.40;;;16.20;72.60;;;;;;5036073;28;20230;-88
2021/08/27 02:56:45;;;;;;;6.22;1.50;;;16.20;72.50;;;;;;5036352;28;20230;-87
2021/08/27 02:59:13;;;;;;;4.32;1.65;;;16.40;72.50;;;;;;5035830;28;20177;-87
2021/08/27 03:01:50;;;;;;;6.65;1.60;;;16.40;72.50;;;;;;5053408;28;20256;-88
2021/08/27 03:04:30;;;;;;;3.22;1.50;;;16.30;72.50;;;;;;5036005;28;20517;-88
2021/08/27 03:07:05;;;;;;;6.78;1.52;;;16.40;72.20;;;;;;5054498;28;20508;-87
2021/08/27 03:09:55;;;;;;;7.15;1.65;;;16.40;71.80;;;;;;5036513;28;20177;-88
2021/08/27 03:12:33;;;;;;;5.88;1.40;;;16.50;71.80;;;;;;5026582;28;20213;-88
2021/08/27 03:15:00;;;;;;;5.70;1.70;;;16.30;72.00;;;;;;5035806;28;20679;-87
2021/08/27 03:17:32;;;;;;;3.83;1.80;;;16.30;72.20;;;;;;5053914;28;20651;-87
2021/08/27 03:20:11;;;;;;;6.82;1.95;;;16.30;72.30;;;;;;5036060;28;20205;-87
2021/08/27 03:22:47;;;;;;;11.35;1.67;;;16.30;72.30;;;;;;5036548;28;20193;-89
2021/08/27 03:25:14;;;;;;;6.95;1.48;;;16.30;72.50;;;;;;5077196;28;20204;-86
2021/08/27 03:28:02;;;;;;;4.00;1.60;;;16.30;72.20;;;;;;5043713;28;20192;-87
2021/08/27 03:30:32;;;;;;;6.93;1.90;;;16.20;72.00;;;;;;5019462;28;20663;-87
2021/08/27 03:33:02;;;;;;;2.05;1.60;;;16.20;72.30;;;;;;5035297;28;20257;-88
2021/08/27 03:35:30;;;;;;;4.22;1.80;;;16.10;72.50;;;;;;5070513;28;20686;-88
2021/08/27 03:37:58;;;;;;;4.93;2.55;;;16.20;72.40;;;;;;5039528;28;20169;-88
2021/08/27 03:40:25;;;;;;;7.35;1.95;;;16.30;72.00;;;;;;5039619;28;20173;-88
2021/08/27 03:42:51;;;;;;;6.18;2.70;;;16.30;72.10;;;;;;5039239;28;20264;-88
2021/08/27 03:45:22;;;;;;;9.30;2.67;;;16.40;72.10;;;;;;5039653;28;20185;-88
2021/08/27 03:47:49;;;;;;;6.35;1.52;;;16.30;72.10;;;;;;5039716;28;20173;-87
2021/08/27 03:50:15;;;;;;;3.45;2.20;;;16.30;72.10;;;;;;5059138;28;20179;-87
2021/08/27 03:52:44;;;;;;;4.63;1.70;;;16.30;72.10;;;;;;5063120;28;20193;-86
2021/08/27 03:55:12;;;;;;;9.48;1.77;;;16.30;72.30;;;;;;5053946;28;20213;-88
2021/08/27 03:57:38;;;;;;;6.03;2.15;;;16.30;72.20;;;;;;5039150;28;20348;-89
2021/08/27 04:00:05;;;;;;;6.93;2.95;;;16.30;71.80;;;;;;5039372;28;20238;-89
2021/08/27 04:02:31;;;;;;;3.40;1.73;;;16.20;71.90;;;;;;5050696;28;20276;-89
2021/08/27 04:05:14;;;;;;;4.55;1.90;;;16.10;72.30;;;;;;5048682;28;20181;-88
2021/08/27 04:07:42;;;;;;;11.88;3.08;;;16.10;72.60;;;;;;5039251;28;20649;-88
2021/08/27 04:10:09;;;;;;;8.55;1.70;;;16.20;72.50;;;;;;5039399;28;20180;-88
2021/08/27 04:12:38;;;;;;;5.25;2.20;;;16.20;72.50;;;;;;5038806;28;20339;-88
2021/08/27 04:15:05;;;;;;;3.55;2.15;;;16.20;72.20;;;;;;5039062;28;20292;-87
2021/08/27 04:17:30;;;;;;;4.40;1.70;;;16.20;72.40;;;;;;5038924;28;20173;-87
2021/08/27 04:19:56;;;;;;;4.30;1.73;;;16.10;72.50;;;;;;5038439;28;20193;-87
2021/08/27 04:22:23;;;;;;;4.03;1.87;;;16.10;72.50;;;;;;5038597;28;20197;-88
2021/08/27 04:24:49;;;;;;;5.88;2.42;;;16.10;72.60;;;;;;5038705;28;20957;-87
2021/08/27 04:27:15;;;;;;;4.43;1.93;;;16.10;72.50;;;;;;5038915;28;20181;-89
2021/08/27 04:29:41;;;;;;;5.37;1.80;;;16.20;72.40;;;;;;5039745;28;20927;-88
2021/08/27 04:32:07;;;;;;;4.90;1.70;;;16.20;72.30;;;;;;5050582;28;20527;-89
2021/08/27 04:34:34;;;;;;;11.20;2.13;;;16.10;72.50;;;;;;5060740;28;20212;-88
2021/08/27 04:36:59;;;;;;;5.13;1.80;;;16.00;72.50;;;;;;5060881;28;20221;-87
2021/08/27 04:39:25;;;;;;;2.37;1.73;;;16.20;72.70;;;;;;5062497;28;20185;-87
2021/08/27 04:41:51;;;;;;;5.60;1.90;;;16.20;72.50;;;;;;5061997;28;20192;-87
2021/08/27 04:44:17;;;;;;;11.40;2.13;;;16.20;72.60;;;;;;5079863;28;20165;-88
2021/08/27 04:46:42;;;;;;;4.53;1.80;;;16.20;72.40;;;;;;5060952;28;20170;-87
2021/08/27 04:49:08;;;;;;;11.93;2.00;;;16.30;72.40;;;;;;5062597;28;20185;-88
2021/08/27 04:51:34;;;;;;;8.30;2.90;;;16.20;72.30;;;;;;5062142;28;20165;-86
2021/08/27 04:54:01;;;;;;;5.90;2.43;;;16.20;72.20;;;;;;5062078;28;20197;-88
2021/08/27 04:56:26;;;;;;;8.95;3.10;;;16.30;72.50;;;;;;5062124;28;20419;-88
2021/08/27 04:58:52;;;;;;;5.77;1.87;;;16.30;72.50;;;;;;5062384;28;20228;-87
2021/08/27 05:01:18;;;;;;;5.93;2.67;;;16.20;72.50;;;;;;5061797;28;20188;-88
2021/08/27 05:03:44;;;;;;;15.43;3.20;;;16.20;72.40;;;;;;5062174;28;20466;-88
2021/08/27 05:06:10;;;;;;;3.30;2.00;;;16.30;72.60;;;;;;5062079;28;20427;-88
2021/08/27 05:08:36;;;;;;;11.30;2.20;;;16.30;72.20;;;;;;5061733;28;20495;-86
2021/08/27 05:11:03;;;;;;;5.67;1.80;;;16.30;72.50;;;;;;5061390;28;20185;-87
2021/08/27 05:13:29;;;;;;;15.15;2.97;;;16.30;72.40;;;;;;5060803;28;20515;-88
2021/08/27 05:15:55;;;;;;;11.05;2.35;;;16.30;72.20;;;;;;5052144;28;20281;-88
2021/08/27 05:18:21;;;;;;;6.18;2.10;;;16.30;72.00;;;;;;5046466;28;20666;-88
2021/08/27 05:20:47;;;;;;;11.20;2.17;;;16.30;72.00;;;;;;5053658;28;20201;-87
2021/08/27 05:23:13;;;;;;;6.83;2.00;;;16.10;72.30;;;;;;5043882;28;20444;-87
2021/08/27 05:25:38;;;;;;;6.40;2.00;;;16.20;72.30;;;;;;5038210;28;20192;-87
2021/08/27 05:28:04;;;;;;;7.53;2.23;;;16.30;72.20;;;;;;5037650;28;20272;-87
2021/08/27 05:30:30;;;;;;;13.40;2.53;;;16.30;72.00;;;;;;5055862;28;20219;-86
2021/08/27 05:32:56;;;;;;;13.53;2.17;;;16.50;71.70;;;;;;5037377;28;20504;-85
2021/08/27 05:35:22;;;;;;;9.93;3.30;;;16.40;71.50;;;;;;5039013;28;20197;-87
2021/08/27 05:37:49;;;;;;;10.82;3.75;;;16.60;71.60;;;;;;5021409;28;20416;-86
2021/08/27 05:40:15;;;;;;;4.90;2.15;;;17.00;71.00;;;;;;5037535;28;20177;-87
2021/08/27 05:42:41;;;;;;;6.00;2.45;;;17.60;69.40;;;;;;5036663;28;20196;-89
2021/08/27 05:45:08;;;;;;;7.25;2.30;;;18.40;67.20;;;;;;5039744;28;20185;-89
2021/08/27 05:47:34;;;;;;;8.25;3.53;;;18.80;64.70;;;;;;5056528;28;20275;-86
2021/08/27 05:50:04;;;;;;;8.85;2.28;;;19.40;63.00;;;;;;5039243;28;20640;-87
2021/08/27 05:52:30;;;;;;;18.17;5.70;;;20.20;61.10;;;;;;5054349;28;20205;-87
2021/08/27 05:54:56;;;;;;;8.97;2.63;;;20.90;58.60;;;;;;5051522;28;20621;-86
2021/08/27 05:57:22;;;;;;;26.60;9.43;;;21.30;56.40;;;;;;5054442;28;20173;-87
2021/08/27 05:59:48;;;;;;;33.33;14.50;;;21.90;54.50;;;;;;5036963;28;20419;-87
2021/08/27 06:02:14;;;;;;;21.30;8.80;;;22.30;52.70;;;;;;5037931;28;20201;-85
2021/08/27 06:04:39;;;;;;;26.57;9.47;;;22.50;52.10;;;;;;5037925;28;20255;-86
2021/08/27 06:07:05;;;;;;;16.77;8.70;;;22.80;51.70;;;;;;5038197;28;20431;-86
2021/08/27 06:09:31;;;;;;;19.10;8.10;;;22.70;50.30;;;;;;5038540;28;20246;-87
2021/08/27 06:11:57;;;;;;;11.53;5.77;;;22.90;49.90;;;;;;5036474;28;20415;-87
2021/08/27 06:14:22;;;;;;;15.73;5.40;;;22.80;50.00;;;;;;5036555;28;20224;-87
2021/08/27 06:16:48;;;;;;;9.50;4.50;;;22.30;50.60;;;;;;5036738;28;20181;-88
2021/08/27 06:19:14;;;;;;;12.37;3.20;;;22.10;51.70;;;;;;5036931;28;20208;-87
2021/08/27 06:21:40;;;;;;;7.47;2.30;;;22.10;52.00;;;;;;5055026;28;20169;-87
2021/08/27 06:24:06;;;;;;;8.67;2.03;;;21.70;52.30;;;;;;5036955;28;20577;-86
2021/08/27 06:26:33;;;;;;;7.00;2.50;;;21.50;53.00;;;;;;5036852;28;20448;-86
2021/08/27 06:29:03;;;;;;;6.10;2.30;;;21.20;53.30;;;;;;5055648;28;20426;-86
2021/08/27 06:31:28;;;;;;;6.33;2.40;;;20.80;54.40;;;;;;5036273;28;20439;-87
2021/08/27 06:33:54;;;;;;;6.17;2.90;;;20.60;55.30;;;;;;5055348;28;20431;-86
2021/08/27 06:36:20;;;;;;;13.53;3.23;;;20.30;56.00;;;;;;5036958;28;20176;-86
2021/08/27 06:38:46;;;;;;;6.10;1.87;;;20.20;56.50;;;;;;5037933;28;20183;-86
2021/08/27 06:41:12;;;;;;;8.80;2.33;;;20.10;57.00;;;;;;5036056;28;20188;-88
2021/08/27 06:43:44;;;;;;;5.57;1.50;;;20.00;56.90;;;;;;5036518;28;20690;-86
2021/08/27 06:46:14;;;;;;;11.75;2.60;;;20.20;56.70;;;;;;5037049;28;20181;-86
2021/08/27 06:48:40;;;;;;;4.93;1.42;;;20.40;55.70;;;;;;5036987;28;20230;-86
2021/08/27 06:51:06;;;;;;;11.13;1.50;;;20.30;55.30;;;;;;5036964;28;20185;-87
2021/08/27 06:53:32;;;;;;;3.00;1.50;;;20.30;55.80;;;;;;5054241;28;20201;-86
2021/08/27 06:55:57;;;;;;;5.80;1.67;;;20.10;56.20;;;;;;5020713;28;20201;-85
2021/08/27 06:58:23;;;;;;;4.77;1.47;;;19.90;56.90;;;;;;5047340;28;20545;-88
2021/08/27 07:00:49;;;;;;;7.93;2.47;;;19.70;57.80;;;;;;5054550;28;20412;-87
2021/08/27 07:03:15;;;;;;;7.07;2.20;;;19.40;58.50;;;;;;5054112;28;20192;-86
2021/08/27 07:05:41;;;;;;;1.87;1.30;;;19.20;59.40;;;;;;5055709;28;20252;-86
2021/08/27 07:08:08;;;;;;;4.30;1.57;;;19.00;60.10;;;;;;5063490;28;20918;-86
2021/08/27 07:10:33;;;;;;;3.40;1.73;;;18.80;60.40;;;;;;5076449;28;20431;-85
2021/08/27 07:13:00;;;;;;;10.37;2.00;;;18.80;60.50;;;;;;5076775;28;20277;-86
2021/08/27 07:15:26;;;;;;;3.53;1.40;;;18.80;61.40;;;;;;5077596;28;20459;-87
2021/08/27 07:17:53;;;;;;;6.90;2.60;;;18.70;60.80;;;;;;5063641;28;20222;-86
2021/08/27 07:20:20;;;;;;;4.70;1.73;;;18.70;61.20;;;;;;5059859;28;20519;-86
2021/08/27 07:22:46;;;;;;;3.35;1.73;;;18.60;61.40;;;;;;5058217;28;20289;-86
2021/08/27 07:25:12;;;;;;;8.20;1.87;;;18.50;61.90;;;;;;5057526;28;20655;-86
2021/08/27 07:27:39;;;;;;;6.25;1.67;;;18.30;62.90;;;;;;5040768;28;20548;-87
2021/08/27 07:30:07;;;;;;;4.93;1.40;;;18.30;63.10;;;;;;5040984;28;20247;-86
2021/08/27 07:32:33;;;;;;;6.00;1.55;;;18.30;63.70;;;;;;5040387;28;20201;-87
2021/08/27 07:34:59;;;;;;;14.35;2.08;;;18.20;63.30;;;;;;5058928;28;20204;-86
2021/08/27 07:37:25;;;;;;;4.80;1.57;;;18.20;63.40;;;;;;5051749;28;20173;-87
2021/08/27 07:39:51;;;;;;;2.33;1.47;;;18.20;63.90;;;;;;5063837;28;20169;-86
2021/08/27 07:42:16;;;;;;;12.17;2.17;;;18.30;63.50;;;;;;5051573;28;20459;-86
2021/08/27 07:44:42;;;;;;;2.70;1.53;;;18.30;63.40;;;;;;5058633;28;20465;-85
2021/08/27 07:47:08;;;;;;;5.20;2.47;;;18.30;63.30;;;;;;5041599;28;20655;-86
2021/08/27 07:49:34;;;;;;;8.53;1.60;;;18.20;63.50;;;;;;5042288;28;20411;-85
2021/08/27 07:52:02;;;;;;;5.45;1.90;;;18.30;63.70;;;;;;5059921;28;20177;-86
2021/08/27 07:54:28;;;;;;;5.95;2.25;;;18.20;63.60;;;;;;5042117;28;20295;-86
2021/08/27 07:56:54;;;;;;;5.70;1.67;;;18.30;63.50;;;;;;5040699;28;20201;-86
2021/08/27 07:59:19;;;;;;;8.10;1.70;;;18.20;63.10;;;;;;5041231;28;20276;-86
2021/08/27 08:01:46;;;;;;;3.87;1.30;;;18.30;63.10;;;;;;5040160;28;20184;-86
2021/08/27 08:04:13;;;;;;;5.65;1.92;;;18.40;63.40;;;;;;5040159;28;20527;-85
2021/08/27 08:06:39;;;;;;;2.28;1.52;;;18.50;63.20;;;;;;5039676;28;20249;-86
2021/08/27 08:09:06;;;;;;;2.95;1.10;;;18.40;63.00;;;;;;5073264;28;20272;-85
2021/08/27 08:11:32;;;;;;;3.95;1.30;;;18.50;62.80;;;;;;5039725;28;20246;-86
2021/08/27 08:13:58;;;;;;;3.58;1.20;;;18.50;62.70;;;;;;5046003;28;20211;-86
2021/08/27 08:16:24;;;;;;;6.23;2.10;;;18.60;62.40;;;;;;5053012;28;20178;-86
2021/08/27 08:18:50;;;;;;;3.17;1.20;;;18.70;62.30;;;;;;5053830;28;20420;-87
2021/08/27 08:21:22;;;;;;;5.33;1.70;;;18.80;62.00;;;;;;5071090;28;20216;-87
2021/08/27 08:23:51;;;;;;;7.38;1.60;;;18.90;61.60;;;;;;5053316;28;20959;-85
2021/08/27 08:26:19;;;;;;;4.85;1.67;;;18.90;61.90;;;;;;5050448;28;20196;-86
2021/08/27 08:28:46;;;;;;;4.07;1.10;;;18.90;61.50;;;;;;5051190;28;20173;-86
2021/08/27 08:31:17;;;;;;;3.47;1.30;;;18.90;60.90;;;;;;5047598;28;20236;-87
2021/08/27 08:33:43;;;;;;;8.00;1.38;;;18.80;60.40;;;;;;5047271;28;20246;-86
2021/08/27 08:36:09;;;;;;;3.92;1.38;;;19.00;60.50;;;;;;5041487;28;20663;-86
2021/08/27 08:38:35;;;;;;;5.13;1.80;;;19.20;60.90;;;;;;5057585;28;20181;-86
2021/08/27 08:41:03;;;;;;;2.20;1.30;;;19.30;60.40;;;;;;5039792;28;20177;-87
2021/08/27 08:43:31;;;;;;;2.72;1.00;;;19.40;59.80;;;;;;5039048;28;20296;-87
2021/08/27 08:45:57;;;;;;;3.05;1.30;;;19.60;59.40;;;;;;5056814;28;20552;-87
2021/08/27 08:48:24;;;;;;;3.47;1.23;;;19.60;58.50;;;;;;5039628;28;20268;-86
2021/08/27 08:50:51;;;;;;;3.35;1.30;;;19.50;58.00;;;;;;5042158;28;20181;-86
2021/08/27 08:53:22;;;;;;;4.15;1.20;;;19.30;58.10;;;;;;5039638;28;20197;-86
2021/08/27 08:55:48;;;;;;;2.72;1.45;;;19.20;58.40;;;;;;5039751;28;20204;-86
2021/08/27 08:58:14;;;;;;;5.43;1.45;;;19.20;59.20;;;;;;5043902;28;20541;-86
2021/08/27 09:00:40;;;;;;;4.20;1.87;;;19.20;59.50;;;;;;5039884;28;20181;-86
2021/08/27 09:03:06;;;;;;;2.57;1.00;;;19.30;59.80;;;;;;5039747;28;20431;-87
2021/08/27 09:05:32;;;;;;;4.55;1.50;;;19.20;59.50;;;;;;5039261;28;20195;-87
2021/08/27 09:07:58;;;;;;;7.97;1.70;;;19.30;59.10;;;;;;5039517;28;20207;-86
2021/08/27 09:10:24;;;;;;;5.73;1.60;;;19.20;59.20;;;;;;5058434;28;20411;-87
2021/08/27 09:12:51;;;;;;;9.30;2.70;;;19.00;58.70;;;;;;5022641;28;20240;-87
2021/08/27 09:15:20;;;;;;;4.22;1.40;;;19.20;58.70;;;;;;5038647;28;20455;-86
2021/08/27 09:17:51;;;;;;;3.55;1.48;;;19.30;58.10;;;;;;5038940;28;20537;-87
2021/08/27 09:20:23;;;;;;;3.58;1.50;;;19.40;58.00;;;;;;5039293;28;20189;-86
2021/08/27 09:22:56;;;;;;;1.83;1.35;;;19.40;57.60;;;;;;5038574;28;20350;-86
2021/08/27 09:25:25;;;;;;;2.40;1.05;;;19.50;56.90;;;;;;5040733;28;20248;-86
2021/08/27 09:28:11;;;;;;;2.92;1.10;;;19.40;56.10;;;;;;5042405;28;20272;-86
2021/08/27 09:31:00;;;;;;;5.50;1.63;;;19.40;56.80;;;;;;5060356;28;20173;-86
2021/08/27 09:33:29;;;;;;;7.47;1.90;;;19.40;56.70;;;;;;5077164;28;20227;-85
2021/08/27 09:36:05;;;;;;;9.40;1.90;;;19.40;56.00;;;;;;5061394;28;20262;-86
2021/08/27 09:38:34;;;;;;;1.95;1.30;;;19.50;56.20;;;;;;5061104;28;20165;-85
2021/08/27 09:41:19;;;;;;;4.45;1.50;;;19.60;56.50;;;;;;5061037;28;20261;-85
2021/08/27 09:43:50;;;;;;;7.47;1.77;;;19.70;57.00;;;;;;5061043;28;20220;-85
2021/08/27 09:46:43;;;;;;;7.28;1.70;;;19.90;56.20;;;;;;5060619;28;20185;-85
2021/08/27 09:49:30;;;;;;;3.38;1.40;;;19.90;56.00;;;;;;5061055;28;20200;-85
2021/08/27 09:52:00;;;;;;;3.22;1.67;;;20.20;56.00;;;;;;5060701;28;20189;-86
2021/08/27 09:54:38;;;;;;;2.40;1.38;;;20.30;55.50;;;;;;5061093;28;20204;-85
2021/08/27 09:57:08;;;;;;;2.25;1.65;;;20.30;54.30;;;;;;5078540;28;20216;-86
2021/08/27 09:59:46;;;;;;;1.40;1.30;;;20.40;53.50;;;;;;5078628;28;20146;-87
2021/08/27 10:02:16;;;;;;;4.72;1.55;;;20.40;52.10;;;;;;5059808;28;20197;-86
2021/08/27 10:04:57;;;;;;;4.93;1.60;;;20.30;51.60;;;;;;5060363;28;20173;-85
2021/08/27 10:07:35;;;;;;;6.68;1.70;;;20.30;51.00;;;;;;5078506;28;20165;-87
2021/08/27 10:10:05;;;;;;;3.20;1.08;;;20.30;51.50;;;;;;5061181;28;20224;-83
2021/08/27 10:12:34;;;;;;;1.30;1.20;;;20.20;51.10;;;;;;5078232;28;20261;-88
2021/08/27 10:15:02;;;;;;;2.20;1.40;;;20.10;51.60;;;;;;5078405;28;20204;-85
2021/08/27 10:17:28;;;;;;;1.88;1.20;;;20.20;50.80;;;;;;5061064;28;20184;-83
2021/08/27 10:19:54;;;;;;;2.60;1.27;;;20.30;50.50;;;;;;5060888;28;20216;-86
2021/08/27 10:22:21;;;;;;;2.40;1.70;;;20.40;50.70;;;;;;5060493;28;20189;-86
2021/08/27 10:24:47;;;;;;;2.13;1.30;;;20.60;50.60;;;;;;5060724;28;20227;-84
2021/08/27 10:27:14;;;;;;;3.30;1.60;;;20.50;49.20;;;;;;5060730;28;20237;-87
2021/08/27 10:29:51;;;;;;;7.53;2.10;;;20.50;49.30;;;;;;5077285;28;20246;-86
2021/08/27 10:32:38;;;;;;;2.63;1.35;;;20.40;49.40;;;;;;5076798;28;20181;-86
2021/08/27 10:35:31;;;;;;;1.75;1.15;;;20.20;51.00;;;;;;5059680;28;20312;-86
2021/08/27 10:37:57;;;;;;;5.40;1.30;;;20.30;51.60;;;;;;5057172;28;20180;-85
2021/08/27 10:40:23;;;;;;;4.87;1.33;;;20.20;52.20;;;;;;5049418;28;20553;-86
2021/08/27 10:42:51;;;;;;;3.63;1.83;;;20.00;52.70;;;;;;5039714;28;20440;-86
2021/08/27 10:45:43;;;;;;;2.33;1.40;;;19.70;53.50;;;;;;5038444;28;20455;-87
2021/08/27 10:48:19;;;;;;;3.92;1.27;;;19.80;54.20;;;;;;5038932;28;20560;-87
2021/08/27 10:50:47;;;;;;;2.40;1.30;;;19.80;54.40;;;;;;5040415;28;20203;-87
2021/08/27 10:53:19;;;;;;;4.70;1.80;;;19.80;54.80;;;;;;5056156;28;20196;-88
2021/08/27 10:56:37;;;;;;;4.97;1.48;;;20.00;54.70;;;;;;5060108;28;20272;-86
2021/08/27 10:59:07;;;;;;;3.97;1.45;;;20.20;54.20;;;;;;5068308;28;20219;-87
2021/08/27 11:01:35;;;;;;;6.15;2.10;;;20.10;53.90;;;;;;5047075;28;20196;-87
2021/08/27 11:04:04;;;;;;;5.40;1.48;;;20.00;53.90;;;;;;5040969;28;20205;-87
2021/08/27 11:06:44;;;;;;;3.08;1.40;;;20.10;53.80;;;;;;5037550;28;20272;-86
2021/08/27 11:09:14;;;;;;;2.53;1.70;;;20.40;53.30;;;;;;5038759;28;20175;-88
2021/08/27 11:11:40;;;;;;;10.25;3.33;;;20.40;53.10;;;;;;5046786;28;20175;-86
2021/08/27 11:14:19;;;;;;;3.60;2.00;;;20.50;53.10;;;;;;5058610;28;20260;-86
2021/08/27 11:16:57;;;;;;;1.70;1.58;;;20.80;52.60;;;;;;5076881;28;20430;-88
2021/08/27 11:19:38;;;;;;;2.17;1.80;;;20.90;52.00;;;;;;5076344;28;20327;-85
2021/08/27 11:22:09;;;;;;;2.38;1.65;;;21.10;51.50;;;;;;5075549;28;20427;-88
2021/08/27 11:24:38;;;;;;;2.27;1.57;;;21.20;51.20;;;;;;5058435;28;20177;-87
2021/08/27 11:27:07;;;;;;;3.77;1.90;;;21.10;49.90;;;;;;5055420;28;20450;-87
2021/08/27 11:29:40;;;;;;;3.03;1.70;;;21.00;49.10;;;;;;5039158;28;20451;-86
2021/08/27 11:32:25;;;;;;;7.35;2.00;;;21.00;49.10;;;;;;5055052;28;20447;-86
2021/08/27 11:35:06;;;;;;;4.28;1.65;;;21.10;49.20;;;;;;5038971;28;20213;-85
2021/08/27 11:37:36;;;;;;;4.90;2.07;;;21.00;49.40;;;;;;5059575;28;20218;-87
2021/08/27 11:40:08;;;;;;;2.88;1.50;;;20.90;50.00;;;;;;5048377;28;20455;-88
2021/08/27 11:42:37;;;;;;;7.70;2.00;;;20.90;50.20;;;;;;5048066;28;20201;-89
2021/08/27 11:45:22;;;;;;;6.10;1.80;;;21.10;50.10;;;;;;5050330;28;20252;-88
2021/08/27 11:47:58;;;;;;;3.73;2.00;;;21.10;50.00;;;;;;5037862;28;20196;-88
2021/08/27 11:50:40;;;;;;;7.93;2.00;;;21.00;50.70;;;;;;5035703;28;20430;-88
2021/08/27 11:53:08;;;;;;;7.83;1.97;;;20.90;51.20;;;;;;5034909;28;20462;-88
2021/08/27 11:55:45;;;;;;;3.93;2.10;;;21.10;51.40;;;;;;5037235;28;20542;-88
2021/08/27 11:58:11;;;;;;;4.13;1.80;;;20.90;51.60;;;;;;5039083;28;20975;-88
2021/08/27 12:00:45;;;;;;;8.03;2.30;;;20.90;51.40;;;;;;5040019;28;20181;-88
2021/08/27 12:03:12;;;;;;;5.53;2.07;;;21.00;51.40;;;;;;5022204;28;20450;-88
2021/08/27 12:05:42;;;;;;;5.53;1.90;;;21.20;50.20;;;;;;5056835;28;20489;-88
2021/08/27 12:08:10;;;;;;;4.00;2.10;;;21.30;50.20;;;;;;5038987;28;20214;-88
2021/08/27 12:10:40;;;;;;;6.90;2.25;;;21.10;49.80;;;;;;5039039;28;20189;-89
2021/08/27 12:13:11;;;;;;;2.78;1.83;;;21.00;50.20;;;;;;5040558;28;20219;-89
2021/08/27 12:15:46;;;;;;;4.72;3.35;;;20.80;49.80;;;;;;5039233;28;20197;-90
2021/08/27 12:18:17;;;;;;;2.97;1.80;;;20.90;50.40;;;;;;5041030;28;20176;-91
2021/08/27 12:20:48;;;;;;;4.97;2.53;;;21.00;50.00;;;;;;5039866;28;20467;-90
2021/08/27 12:23:19;;;;;;;5.60;1.87;;;21.10;50.00;;;;;;5038667;28;20434;-90
2021/08/27 12:25:54;;;;;;;2.80;1.70;;;21.40;49.60;;;;;;5041627;28;20795;-89
2021/08/27 12:28:28;;;;;;;15.90;2.67;;;21.40;49.60;;;;;;5039259;28;20404;-91
2021/08/27 12:30:56;;;;;;;5.63;1.97;;;21.30;50.30;;;;;;5040140;28;20413;-90
2021/08/27 12:33:23;;;;;;;4.20;2.22;;;21.20;50.80;;;;;;5057103;28;20470;-90
2021/08/27 12:35:49;;;;;;;3.77;1.80;;;20.90;51.10;;;;;;5049632;28;20274;-90
2021/08/27 12:38:18;;;;;;;6.50;1.60;;;21.00;49.40;;;;;;5046793;28;20511;-88
2021/08/27 12:40:48;;;;;;;12.70;2.03;;;20.90;48.20;;;;;;5039245;28;20264;-90
2021/08/27 12:43:15;;;;;;;5.00;1.83;;;21.00;48.30;;;;;;5046420;28;20431;-89
2021/08/27 12:45:51;;;;;;;5.50;1.77;;;20.90;48.70;;;;;;5048231;28;20434;-90
2021/08/27 12:48:28;;;;;;;6.63;1.85;;;21.00;49.10;;;;;;5043494;28;20461;-90
2021/08/27 12:51:01;;;;;;;3.80;1.60;;;21.10;49.60;;;;;;5040619;28;20196;-89
2021/08/27 12:53:41;;;;;;;4.93;2.07;;;21.00;48.80;;;;;;5039240;28;20493;-88
2021/08/27 12:56:20;;;;;;;6.07;1.63;;;21.00;48.60;;;;;;5038895;28;20454;-89
2021/08/27 12:58:51;;;;;;;2.85;1.92;;;21.10;48.80;;;;;;5036937;28;20499;-88